sensor_id;sensor_type;location;lat;lon;timestamp;pressure;altitude;pressure_sealevel;temperature;humidity
64679;BME280;51094;53.864;27.676;2023-06-19T00:01:08;98972.94;;;21.37;52.31
64679;BME280;51094;53.864;27.676;2023-06-19T00:03:35;99010.88;;;21.58;52.31
64679;BME280;51094;53.864;27.676;2023-06-19T00:06:01;99010.44;;;21.55;52.36
64679;BME280;51094;53.864;27.676;2023-06-19T00:08:28;99016.09;;;21.52;52.62
64679;BME280;51094;53.864;27.676;2023-06-19T00:10:55;98914.59;;;20.94;52.76
64679;BME280;51094;53.864;27.676;2023-06-19T00:13:22;99010.06;;;21.43;52.83
64679;BME280;51094;53.864;27.676;2023-06-19T00:15:49;99013.09;;;21.40;53.00
64679;BME280;51094;53.864;27.676;2023-06-19T00:18:16;99017.09;;;21.36;53.25
64679;BME280;51094;53.864;27.676;2023-06-19T00:20:44;98999.13;;;21.17;53.24
64679;BME280;51094;53.864;27.676;2023-06-19T00:23:12;99021.47;;;21.29;53.32
64679;BME280;51094;53.864;27.676;2023-06-19T00:25:41;99015.28;;;21.22;53.30
64679;BME280;51094;53.864;27.676;2023-06-19T00:28:10;98990.53;;;21.00;53.62
64679;BME280;51094;53.864;27.676;2023-06-19T00:30:38;99017.63;;;21.17;53.86
64679;BME280;51094;53.864;27.676;2023-06-19T00:33:05;99014.34;;;21.15;53.71
64679;BME280;51094;53.864;27.676;2023-06-19T00:35:32;99015.53;;;21.12;53.97
64679;BME280;51094;53.864;27.676;2023-06-19T00:37:59;99002.75;;;21.01;54.09
64679;BME280;51094;53.864;27.676;2023-06-19T00:40:31;98996.72;;;20.78;53.71
64679;BME280;51094;53.864;27.676;2023-06-19T00:42:58;99021.81;;;21.11;54.02
64679;BME280;51094;53.864;27.676;2023-06-19T00:45:28;99003.94;;;20.99;54.12
64679;BME280;51094;53.864;27.676;2023-06-19T00:47:55;99022.91;;;21.17;53.78
64679;BME280;51094;53.864;27.676;2023-06-19T00:50:23;99033.31;;;21.18;54.14
64679;BME280;51094;53.864;27.676;2023-06-19T00:52:51;98980.69;;;20.94;54.03
64679;BME280;51094;53.864;27.676;2023-06-19T00:55:18;99013.97;;;21.18;54.01
64679;BME280;51094;53.864;27.676;2023-06-19T00:57:45;98997.09;;;21.04;54.16
64679;BME280;51094;53.864;27.676;2023-06-19T01:00:13;98930.47;;;20.65;54.10
64679;BME280;51094;53.864;27.676;2023-06-19T01:02:40;98998.47;;;21.00;54.08
64679;BME280;51094;53.864;27.676;2023-06-19T01:05:07;99025.09;;;21.13;54.02
64679;BME280;51094;53.864;27.676;2023-06-19T01:07:44;98980.13;;;20.84;54.31
64679;BME280;51094;53.864;27.676;2023-06-19T01:10:17;98971.50;;;20.52;54.09
64679;BME280;51094;53.864;27.676;2023-06-19T01:15:36;99024.81;;;21.08;54.33
64679;BME280;51094;53.864;27.676;2023-06-19T01:18:08;98804.91;;;19.72;54.31
64679;BME280;51094;53.864;27.676;2023-06-19T01:20:38;99026.81;;;21.06;54.28
64679;BME280;51094;53.864;27.676;2023-06-19T01:23:08;99035.75;;;21.05;54.76
64679;BME280;51094;53.864;27.676;2023-06-19T01:25:35;99000.09;;;20.86;54.82
64679;BME280;51094;53.864;27.676;2023-06-19T01:28:07;99036.56;;;21.06;54.80
64679;BME280;51094;53.864;27.676;2023-06-19T01:30:37;99034.13;;;21.04;54.54
64679;BME280;51094;53.864;27.676;2023-06-19T01:35:40;98898.19;;;20.17;54.72
64679;BME280;51094;53.864;27.676;2023-06-19T01:38:09;98937.25;;;20.44;54.81
64679;BME280;51094;53.864;27.676;2023-06-19T01:40:37;98989.88;;;20.83;54.69
64679;BME280;51094;53.864;27.676;2023-06-19T01:43:05;99034.31;;;21.17;54.55
64679;BME280;51094;53.864;27.676;2023-06-19T01:45:32;98965.97;;;20.62;54.37
64679;BME280;51094;53.864;27.676;2023-06-19T01:47:59;99044.88;;;21.17;54.39
64679;BME280;51094;53.864;27.676;2023-06-19T01:50:26;98968.16;;;20.58;54.43
64679;BME280;51094;53.864;27.676;2023-06-19T01:52:53;98986.50;;;20.89;54.62
64679;BME280;51094;53.864;27.676;2023-06-19T01:55:21;99009.69;;;21.02;54.04
64679;BME280;51094;53.864;27.676;2023-06-19T01:57:48;98963.91;;;20.72;54.18
64679;BME280;51094;53.864;27.676;2023-06-19T02:00:15;99045.19;;;21.22;54.07
64679;BME280;51094;53.864;27.676;2023-06-19T02:02:42;99055.09;;;21.20;54.02
64679;BME280;51094;53.864;27.676;2023-06-19T02:05:09;99038.28;;;21.21;53.85
64679;BME280;51094;53.864;27.676;2023-06-19T02:07:36;99037.88;;;21.24;53.76
64679;BME280;51094;53.864;27.676;2023-06-19T02:10:03;99040.69;;;21.23;53.74
64679;BME280;51094;53.864;27.676;2023-06-19T02:12:32;99014.94;;;20.87;53.66
64679;BME280;51094;53.864;27.676;2023-06-19T02:14:58;99038.13;;;21.15;53.57
64679;BME280;51094;53.864;27.676;2023-06-19T02:17:25;99026.34;;;21.03;53.38
64679;BME280;51094;53.864;27.676;2023-06-19T02:19:52;98841.91;;;20.02;53.23
64679;BME280;51094;53.864;27.676;2023-06-19T02:22:19;99014.59;;;21.05;53.06
64679;BME280;51094;53.864;27.676;2023-06-19T02:24:46;99035.13;;;21.18;52.86
64679;BME280;51094;53.864;27.676;2023-06-19T02:27:12;99035.31;;;21.16;53.10
64679;BME280;51094;53.864;27.676;2023-06-19T02:29:39;98860.38;;;20.02;52.93
64679;BME280;51094;53.864;27.676;2023-06-19T02:32:06;99039.97;;;21.14;53.26
64679;BME280;51094;53.864;27.676;2023-06-19T02:34:33;99040.78;;;21.15;53.06
64679;BME280;51094;53.864;27.676;2023-06-19T02:37:00;99034.31;;;21.17;52.98
64679;BME280;51094;53.864;27.676;2023-06-19T02:39:27;99026.81;;;21.06;53.06
64679;BME280;51094;53.864;27.676;2023-06-19T02:41:53;98945.78;;;20.69;52.79
64679;BME280;51094;53.864;27.676;2023-06-19T02:44:20;98997.19;;;20.96;53.06
64679;BME280;51094;53.864;27.676;2023-06-19T02:46:47;99014.50;;;20.99;53.16
64679;BME280;51094;53.864;27.676;2023-06-19T02:49:14;99039.22;;;21.06;53.28
64679;BME280;51094;53.864;27.676;2023-06-19T02:51:42;98931.75;;;20.31;53.25
64679;BME280;51094;53.864;27.676;2023-06-19T02:54:09;99001.19;;;20.77;53.03
64679;BME280;51094;53.864;27.676;2023-06-19T02:56:37;98866.53;;;19.94;52.64
64679;BME280;51094;53.864;27.676;2023-06-19T02:59:04;99042.56;;;21.00;53.08
64679;BME280;51094;53.864;27.676;2023-06-19T03:01:31;99035.94;;;21.04;53.23
64679;BME280;51094;53.864;27.676;2023-06-19T03:03:58;99039.41;;;21.04;53.14
64679;BME280;51094;53.864;27.676;2023-06-19T03:06:25;98999.44;;;20.84;53.33
64679;BME280;51094;53.864;27.676;2023-06-19T03:08:52;99016.59;;;21.03;53.16
64679;BME280;51094;53.864;27.676;2023-06-19T03:11:20;99005.66;;;20.91;53.00
64679;BME280;51094;53.864;27.676;2023-06-19T03:13:50;99035.34;;;21.31;52.73
64679;BME280;51094;53.864;27.676;2023-06-19T03:16:19;99036.16;;;21.32;52.72
64679;BME280;51094;53.864;27.676;2023-06-19T03:18:47;98961.91;;;20.89;52.65
64679;BME280;51094;53.864;27.676;2023-06-19T03:21:20;99035.44;;;21.38;52.79
64679;BME280;51094;53.864;27.676;2023-06-19T03:23:49;99042.34;;;21.39;52.78
64679;BME280;51094;53.864;27.676;2023-06-19T03:26:20;99026.84;;;21.36;52.54
64679;BME280;51094;53.864;27.676;2023-06-19T03:28:47;99033.31;;;21.33;52.56
64679;BME280;51094;53.864;27.676;2023-06-19T03:31:15;99011.59;;;21.08;52.59
64679;BME280;51094;53.864;27.676;2023-06-19T03:33:41;99059.59;;;21.35;51.94
64679;BME280;51094;53.864;27.676;2023-06-19T03:36:09;99026.41;;;21.32;51.88
64679;BME280;51094;53.864;27.676;2023-06-19T03:38:45;99030.75;;;21.25;51.65
64679;BME280;51094;53.864;27.676;2023-06-19T03:41:14;99031.22;;;21.29;51.48
64679;BME280;51094;53.864;27.676;2023-06-19T03:43:41;99027.03;;;21.34;51.22
64679;BME280;51094;53.864;27.676;2023-06-19T03:46:08;99020.56;;;21.37;51.05
64679;BME280;51094;53.864;27.676;2023-06-19T03:48:35;99019.56;;;21.38;51.20
64679;BME280;51094;53.864;27.676;2023-06-19T03:51:01;98936.84;;;20.85;51.06
64679;BME280;51094;53.864;27.676;2023-06-19T03:53:28;98935.00;;;20.85;51.19
64679;BME280;51094;53.864;27.676;2023-06-19T03:55:55;99016.00;;;21.31;51.15
64679;BME280;51094;53.864;27.676;2023-06-19T03:58:22;99021.47;;;21.29;51.31
64679;BME280;51094;53.864;27.676;2023-06-19T04:00:49;98954.16;;;20.87;51.57
64679;BME280;51094;53.864;27.676;2023-06-19T04:03:17;98980.41;;;21.04;51.50
64679;BME280;51094;53.864;27.676;2023-06-19T04:05:45;99022.03;;;21.39;51.20
64679;BME280;51094;53.864;27.676;2023-06-19T04:08:11;99015.53;;;21.42;51.22
64679;BME280;51094;53.864;27.676;2023-06-19T04:10:42;99019.47;;;21.46;51.21
64679;BME280;51094;53.864;27.676;2023-06-19T04:13:09;99018.72;;;21.52;50.96
64679;BME280;51094;53.864;27.676;2023-06-19T04:15:36;99033.25;;;21.56;50.97
64679;BME280;51094;53.864;27.676;2023-06-19T04:18:04;98990.63;;;21.51;50.59
64679;BME280;51094;53.864;27.676;2023-06-19T04:20:31;98990.34;;;21.61;50.44
64679;BME280;51094;53.864;27.676;2023-06-19T04:22:58;99012.75;;;21.79;50.38
64679;BME280;51094;53.864;27.676;2023-06-19T04:25:24;98971.94;;;21.52;50.54
64679;BME280;51094;53.864;27.676;2023-06-19T04:27:51;98902.41;;;21.22;49.88
64679;BME280;51094;53.864;27.676;2023-06-19T04:30:18;98948.22;;;21.59;49.93
64679;BME280;51094;53.864;27.676;2023-06-19T04:32:47;98783.16;;;20.67;49.49
64679;BME280;51094;53.864;27.676;2023-06-19T04:35:14;99001.69;;;22.05;49.36
64679;BME280;51094;53.864;27.676;2023-06-19T04:37:41;98976.47;;;21.95;49.20
64679;BME280;51094;53.864;27.676;2023-06-19T04:40:08;99037.44;;;22.37;48.76
64679;BME280;51094;53.864;27.676;2023-06-19T04:42:35;99004.94;;;22.50;47.90
64679;BME280;51094;53.864;27.676;2023-06-19T04:45:05;99025.81;;;22.81;47.20
64679;BME280;51094;53.864;27.676;2023-06-19T04:47:33;99034.28;;;22.98;46.86
64679;BME280;51094;53.864;27.676;2023-06-19T04:50:17;98776.31;;;21.44;45.77
64679;BME280;51094;53.864;27.676;2023-06-19T04:52:44;98961.75;;;22.49;45.89
64679;BME280;51094;53.864;27.676;2023-06-19T04:55:11;99042.66;;;23.01;45.71
64679;BME280;51094;53.864;27.676;2023-06-19T04:57:38;99042.28;;;23.04;46.06
64679;BME280;51094;53.864;27.676;2023-06-19T05:00:05;99039.28;;;23.14;45.72
64679;BME280;51094;53.864;27.676;2023-06-19T05:02:37;98972.81;;;22.81;46.01
64679;BME280;51094;53.864;27.676;2023-06-19T05:05:04;99043.69;;;23.28;46.38
64679;BME280;51094;53.864;27.676;2023-06-19T05:07:31;98944.91;;;22.64;46.11
64679;BME280;51094;53.864;27.676;2023-06-19T05:09:59;98894.41;;;22.16;45.27
64679;BME280;51094;53.864;27.676;2023-06-19T05:12:26;99054.00;;;23.16;45.52
64679;BME280;51094;53.864;27.676;2023-06-19T05:14:52;99062.19;;;23.21;46.09
64679;BME280;51094;53.864;27.676;2023-06-19T05:17:19;99054.44;;;23.20;44.79
64679;BME280;51094;53.864;27.676;2023-06-19T05:19:47;98989.53;;;22.81;44.44
64679;BME280;51094;53.864;27.676;2023-06-19T05:22:14;98979.75;;;22.82;44.81
64679;BME280;51094;53.864;27.676;2023-06-19T05:24:41;99053.91;;;23.31;44.67
64679;BME280;51094;53.864;27.676;2023-06-19T05:27:08;99013.88;;;22.98;44.85
64679;BME280;51094;53.864;27.676;2023-06-19T05:29:35;99054.25;;;23.21;45.36
64679;BME280;51094;53.864;27.676;2023-06-19T05:32:02;99015.69;;;22.91;45.25
64679;BME280;51094;53.864;27.676;2023-06-19T05:34:29;99050.63;;;23.01;45.93
64679;BME280;51094;53.864;27.676;2023-06-19T05:36:57;99051.44;;;23.02;46.23
64679;BME280;51094;53.864;27.676;2023-06-19T05:39:24;99054.44;;;23.20;46.46
64679;BME280;51094;53.864;27.676;2023-06-19T05:41:52;98995.75;;;22.95;45.62
64679;BME280;51094;53.864;27.676;2023-06-19T05:44:19;99038.84;;;23.45;46.08
64679;BME280;51094;53.864;27.676;2023-06-19T05:46:46;99064.38;;;23.74;45.25
64679;BME280;51094;53.864;27.676;2023-06-19T05:49:13;99052.34;;;23.78;45.28
64679;BME280;51094;53.864;27.676;2023-06-19T05:51:40;99056.25;;;23.95;44.22
64679;BME280;51094;53.864;27.676;2023-06-19T05:54:06;99054.19;;;23.91;44.36
64679;BME280;51094;53.864;27.676;2023-06-19T05:56:33;99060.31;;;23.78;43.87
64679;BME280;51094;53.864;27.676;2023-06-19T05:59:00;99064.56;;;23.72;44.49
64679;BME280;51094;53.864;27.676;2023-06-19T06:01:31;99040.00;;;23.64;44.61
64679;BME280;51094;53.864;27.676;2023-06-19T06:03:58;99006.94;;;23.66;44.66
64679;BME280;51094;53.864;27.676;2023-06-19T06:06:25;99006.13;;;23.66;44.43
64679;BME280;51094;53.864;27.676;2023-06-19T06:08:52;99036.84;;;23.81;44.06
64679;BME280;51094;53.864;27.676;2023-06-19T06:11:19;99075.09;;;24.00;43.90
64679;BME280;51094;53.864;27.676;2023-06-19T06:13:46;98980.78;;;23.57;43.26
64679;BME280;51094;53.864;27.676;2023-06-19T06:16:13;99039.75;;;24.00;43.98
64679;BME280;51094;53.864;27.676;2023-06-19T06:18:41;99050.22;;;24.21;43.60
64679;BME280;51094;53.864;27.676;2023-06-19T06:21:07;99049.69;;;24.45;43.08
64679;BME280;51094;53.864;27.676;2023-06-19T06:23:35;99065.63;;;24.72;43.27
64679;BME280;51094;53.864;27.676;2023-06-19T06:26:01;99037.84;;;24.68;41.94
64679;BME280;51094;53.864;27.676;2023-06-19T06:28:29;99066.88;;;24.89;42.03
64679;BME280;51094;53.864;27.676;2023-06-19T06:30:57;99057.50;;;25.00;42.30
64679;BME280;51094;53.864;27.676;2023-06-19T06:33:24;99062.78;;;25.13;42.27
64679;BME280;51094;53.864;27.676;2023-06-19T06:35:53;99032.69;;;25.19;41.46
64679;BME280;51094;53.864;27.676;2023-06-19T06:38:20;99058.22;;;25.53;41.81
64679;BME280;51094;53.864;27.676;2023-06-19T06:40:47;99021.81;;;25.40;40.59
64679;BME280;51094;53.864;27.676;2023-06-19T06:43:14;99062.25;;;25.75;40.78
64679;BME280;51094;53.864;27.676;2023-06-19T06:45:41;99064.91;;;25.75;39.27
64679;BME280;51094;53.864;27.676;2023-06-19T06:48:09;99058.78;;;25.68;40.13
64679;BME280;51094;53.864;27.676;2023-06-19T06:50:36;99062.25;;;25.62;39.78
64679;BME280;51094;53.864;27.676;2023-06-19T06:53:03;98955.00;;;24.97;40.13
64679;BME280;51094;53.864;27.676;2023-06-19T06:55:30;99037.44;;;25.81;40.05
64679;BME280;51094;53.864;27.676;2023-06-19T06:57:57;99069.41;;;26.26;39.72
64679;BME280;51094;53.864;27.676;2023-06-19T07:00:24;98887.88;;;25.46;39.40
64679;BME280;51094;53.864;27.676;2023-06-19T07:02:51;99035.81;;;26.50;39.04
64679;BME280;51094;53.864;27.676;2023-06-19T07:05:18;99066.84;;;26.76;38.56
64679;BME280;51094;53.864;27.676;2023-06-19T07:07:45;99024.84;;;26.65;38.42
64679;BME280;51094;53.864;27.676;2023-06-19T07:10:12;98974.06;;;26.53;38.68
64679;BME280;51094;53.864;27.676;2023-06-19T07:12:49;99087.75;;;27.29;38.32
64679;BME280;51094;53.864;27.676;2023-06-19T07:15:16;99066.75;;;27.32;37.51
64679;BME280;51094;53.864;27.676;2023-06-19T07:17:44;99061.06;;;27.29;37.20
64679;BME280;51094;53.864;27.676;2023-06-19T07:20:12;98998.72;;;26.98;38.00
64679;BME280;51094;53.864;27.676;2023-06-19T07:22:39;99067.56;;;27.33;36.64
64679;BME280;51094;53.864;27.676;2023-06-19T07:25:07;99073.50;;;27.35;37.51
64679;BME280;51094;53.864;27.676;2023-06-19T07:27:36;99065.63;;;27.40;37.23
64679;BME280;51094;53.864;27.676;2023-06-19T07:30:04;99078.47;;;27.49;36.71
64679;BME280;51094;53.864;27.676;2023-06-19T07:32:31;99067.47;;;27.64;36.05
64679;BME280;51094;53.864;27.676;2023-06-19T07:34:58;99074.72;;;27.57;36.71
64679;BME280;51094;53.864;27.676;2023-06-19T07:37:25;99072.81;;;27.64;37.27
64679;BME280;51094;53.864;27.676;2023-06-19T07:39:53;99079.00;;;27.58;37.00
64679;BME280;51094;53.864;27.676;2023-06-19T07:42:20;99075.19;;;27.72;36.50
64679;BME280;51094;53.864;27.676;2023-06-19T07:44:47;98990.72;;;27.35;36.30
64679;BME280;51094;53.864;27.676;2023-06-19T07:47:16;99067.19;;;28.02;36.40
64679;BME280;51094;53.864;27.676;2023-06-19T07:49:44;99005.56;;;27.49;36.40
64679;BME280;51094;53.864;27.676;2023-06-19T07:52:12;99060.75;;;27.73;36.64
64679;BME280;51094;53.864;27.676;2023-06-19T07:54:54;99039.94;;;27.64;36.62
64679;BME280;51094;53.864;27.676;2023-06-19T07:57:22;99076.84;;;28.03;36.53
64679;BME280;51094;53.864;27.676;2023-06-19T07:59:50;99084.44;;;28.18;36.21
64679;BME280;51094;53.864;27.676;2023-06-19T08:02:18;98959.13;;;27.50;35.61
64679;BME280;51094;53.864;27.676;2023-06-19T08:04:46;99020.72;;;28.03;35.31
64679;BME280;51094;53.864;27.676;2023-06-19T08:07:13;99074.16;;;28.52;34.96
64679;BME280;51094;53.864;27.676;2023-06-19T08:09:40;99077.31;;;28.72;35.46
64679;BME280;51094;53.864;27.676;2023-06-19T08:12:07;99080.66;;;29.09;35.62
64679;BME280;51094;53.864;27.676;2023-06-19T08:14:34;99054.47;;;29.11;35.74
64679;BME280;51094;53.864;27.676;2023-06-19T08:17:02;99089.38;;;29.28;34.47
64679;BME280;51094;53.864;27.676;2023-06-19T08:19:29;99075.88;;;29.34;35.36
64679;BME280;51094;53.864;27.676;2023-06-19T08:21:56;99083.09;;;29.57;34.00
64679;BME280;51094;53.864;27.676;2023-06-19T08:24:23;99083.78;;;29.64;34.07
64679;BME280;51094;53.864;27.676;2023-06-19T08:26:50;99055.13;;;29.53;34.17
64679;BME280;51094;53.864;27.676;2023-06-19T08:29:18;99085.44;;;29.94;33.28
64679;BME280;51094;53.864;27.676;2023-06-19T08:31:45;99048.84;;;29.59;33.35
64679;BME280;51094;53.864;27.676;2023-06-19T08:34:12;99087.25;;;29.76;32.93
64679;BME280;51094;53.864;27.676;2023-06-19T08:36:40;99082.13;;;29.87;33.13
64679;BME280;51094;53.864;27.676;2023-06-19T08:39:07;99085.22;;;29.95;32.11
64679;BME280;51094;53.864;27.676;2023-06-19T08:41:38;99082.88;;;29.99;32.33
64679;BME280;51094;53.864;27.676;2023-06-19T08:44:05;99088.09;;;30.17;32.72
64679;BME280;51094;53.864;27.676;2023-06-19T08:46:33;99081.38;;;30.31;32.70
64679;BME280;51094;53.864;27.676;2023-06-19T08:49:01;98904.31;;;29.12;32.24
64679;BME280;51094;53.864;27.676;2023-06-19T08:51:29;99085.34;;;30.00;32.29
64679;BME280;51094;53.864;27.676;2023-06-19T08:54:04;99075.94;;;29.86;32.74
64679;BME280;51094;53.864;27.676;2023-06-19T08:56:32;99042.06;;;29.68;32.70
64679;BME280;51094;53.864;27.676;2023-06-19T08:59:14;99071.56;;;30.08;32.97
64679;BME280;51094;53.864;27.676;2023-06-19T09:01:53;99074.47;;;30.35;32.57
64679;BME280;51094;53.864;27.676;2023-06-19T09:04:31;99077.75;;;30.54;31.66
64679;BME280;51094;53.864;27.676;2023-06-19T09:07:00;99023.69;;;30.29;31.63
64679;BME280;51094;53.864;27.676;2023-06-19T09:09:48;99084.41;;;30.52;30.99
64679;BME280;51094;53.864;27.676;2023-06-19T09:12:15;98994.03;;;30.07;31.41
64679;BME280;51094;53.864;27.676;2023-06-19T09:14:54;99095.69;;;30.82;30.76
64679;BME280;51094;53.864;27.676;2023-06-19T09:17:21;99078.59;;;30.88;30.36
64679;BME280;51094;53.864;27.676;2023-06-19T09:19:54;99080.09;;;31.13;29.55
64679;BME280;51094;53.864;27.676;2023-06-19T09:22:24;99042.28;;;30.35;30.00
64679;BME280;51094;53.864;27.676;2023-06-19T09:25:02;99075.44;;;30.01;31.20
64679;BME280;51094;53.864;27.676;2023-06-19T09:27:33;99081.00;;;29.59;32.00
64679;BME280;51094;53.864;27.676;2023-06-19T09:30:01;99072.28;;;29.17;33.20
64679;BME280;51094;53.864;27.676;2023-06-19T09:32:30;99084.38;;;29.31;33.54
64679;BME280;51094;53.864;27.676;2023-06-19T09:34:57;99067.84;;;29.46;33.42
64679;BME280;51094;53.864;27.676;2023-06-19T09:37:27;99097.66;;;29.50;33.02
64679;BME280;51094;53.864;27.676;2023-06-19T09:39:56;99077.00;;;29.73;32.76
64679;BME280;51094;53.864;27.676;2023-06-19T09:42:36;99077.72;;;29.57;33.01
64679;BME280;51094;53.864;27.676;2023-06-19T09:45:07;99061.06;;;29.55;32.29
64679;BME280;51094;53.864;27.676;2023-06-19T09:47:42;99060.94;;;29.62;33.03
64679;BME280;51094;53.864;27.676;2023-06-19T09:50:15;99016.50;;;29.37;33.03
64679;BME280;51094;53.864;27.676;2023-06-19T09:52:45;99062.28;;;29.88;33.07
64679;BME280;51094;53.864;27.676;2023-06-19T09:55:13;98924.66;;;29.13;33.12
64679;BME280;51094;53.864;27.676;2023-06-19T09:57:41;99070.38;;;30.16;31.94
64679;BME280;51094;53.864;27.676;2023-06-19T10:00:10;98946.69;;;29.56;31.88
64679;BME280;51094;53.864;27.676;2023-06-19T10:02:46;99069.47;;;29.99;31.95
64679;BME280;51094;53.864;27.676;2023-06-19T10:05:14;99043.66;;;29.81;32.74
64679;BME280;51094;53.864;27.676;2023-06-19T10:07:45;99068.53;;;30.33;32.46
64679;BME280;51094;53.864;27.676;2023-06-19T10:10:27;99082.38;;;30.42;31.40
64679;BME280;51094;53.864;27.676;2023-06-19T10:13:00;99037.75;;;30.53;30.83
64679;BME280;51094;53.864;27.676;2023-06-19T10:15:41;99036.81;;;30.59;30.25
64679;BME280;51094;53.864;27.676;2023-06-19T10:18:14;99020.09;;;30.23;30.50
64679;BME280;51094;53.864;27.676;2023-06-19T10:20:44;99070.41;;;30.95;30.02
64679;BME280;51094;53.864;27.676;2023-06-19T10:23:18;99064.69;;;30.91;30.55
64679;BME280;51094;53.864;27.676;2023-06-19T10:28:27;99080.06;;;30.62;30.61
64679;BME280;51094;53.864;27.676;2023-06-19T10:31:00;99134.88;;;30.38;30.13
64679;BME280;51094;53.864;27.676;2023-06-19T10:33:30;99089.94;;;30.17;30.46
64679;BME280;51094;53.864;27.676;2023-06-19T10:36:00;99063.94;;;29.89;29.65
64679;BME280;51094;53.864;27.676;2023-06-19T10:38:28;99083.06;;;29.81;29.07
64679;BME280;51094;53.864;27.676;2023-06-19T10:40:56;99117.44;;;29.60;28.35
64679;BME280;51094;53.864;27.676;2023-06-19T10:43:24;99100.44;;;29.31;27.24
64679;BME280;51094;53.864;27.676;2023-06-19T10:45:54;99101.94;;;29.04;27.31
64679;BME280;51094;53.864;27.676;2023-06-19T10:48:25;99021.91;;;28.37;27.85
64679;BME280;51094;53.864;27.676;2023-06-19T10:50:52;99075.22;;;28.74;27.73
64679;BME280;51094;53.864;27.676;2023-06-19T10:53:32;99059.22;;;28.86;27.88
64679;BME280;51094;53.864;27.676;2023-06-19T10:56:01;99060.97;;;29.03;28.13
64679;BME280;51094;53.864;27.676;2023-06-19T10:58:29;99043.53;;;28.89;28.18
64679;BME280;51094;53.864;27.676;2023-06-19T11:00:56;99061.09;;;28.85;28.01
64679;BME280;51094;53.864;27.676;2023-06-19T11:03:24;99063.56;;;28.98;28.62
64679;BME280;51094;53.864;27.676;2023-06-19T11:05:51;99001.03;;;29.16;28.19
64679;BME280;51094;53.864;27.676;2023-06-19T11:08:22;99081.66;;;30.18;27.05
64679;BME280;51094;53.864;27.676;2023-06-19T11:10:50;99023.63;;;29.84;27.53
64679;BME280;51094;53.864;27.676;2023-06-19T11:13:19;99062.75;;;30.25;27.45
64679;BME280;51094;53.864;27.676;2023-06-19T11:15:50;99067.50;;;30.06;28.60
64679;BME280;51094;53.864;27.676;2023-06-19T11:18:18;99075.59;;;29.83;29.63
64679;BME280;51094;53.864;27.676;2023-06-19T11:20:47;99114.94;;;29.94;30.02
64679;BME280;51094;53.864;27.676;2023-06-19T11:23:25;99071.28;;;29.82;30.39
64679;BME280;51094;53.864;27.676;2023-06-19T11:25:52;99083.44;;;29.49;31.27
64679;BME280;51094;53.864;27.676;2023-06-19T11:28:19;99057.84;;;28.95;32.21
64679;BME280;51094;53.864;27.676;2023-06-19T11:30:58;99082.00;;;28.76;33.14
64679;BME280;51094;53.864;27.676;2023-06-19T11:33:26;99090.78;;;28.54;33.56
64679;BME280;51094;53.864;27.676;2023-06-19T11:35:54;99081.50;;;28.26;33.62
64679;BME280;51094;53.864;27.676;2023-06-19T11:38:26;99073.91;;;27.93;33.34
64679;BME280;51094;53.864;27.676;2023-06-19T11:40:55;99074.00;;;27.68;33.03
64679;BME280;51094;53.864;27.676;2023-06-19T11:43:30;99014.44;;;27.06;33.34
64679;BME280;51094;53.864;27.676;2023-06-19T11:46:07;99070.63;;;27.55;33.18
64679;BME280;51094;53.864;27.676;2023-06-19T11:48:37;98998.00;;;27.46;32.24
64679;BME280;51094;53.864;27.676;2023-06-19T11:51:04;99073.38;;;27.85;32.20
64679;BME280;51094;53.864;27.676;2023-06-19T11:53:34;99072.53;;;27.72;32.08
64679;BME280;51094;53.864;27.676;2023-06-19T11:56:01;99067.47;;;27.64;31.78
64679;BME280;51094;53.864;27.676;2023-06-19T11:58:29;99082.03;;;27.68;31.85
64679;BME280;51094;53.864;27.676;2023-06-19T12:00:56;99069.97;;;27.77;31.90
64679;BME280;51094;53.864;27.676;2023-06-19T12:03:24;99077.75;;;27.97;31.57
64679;BME280;51094;53.864;27.676;2023-06-19T12:05:52;99084.16;;;28.26;31.38
64679;BME280;51094;53.864;27.676;2023-06-19T12:08:19;99033.91;;;29.63;29.41
64679;BME280;51094;53.864;27.676;2023-06-19T12:10:46;99057.13;;;31.05;28.51
64679;BME280;51094;53.864;27.676;2023-06-19T12:13:13;99080.78;;;32.07;26.99
64679;BME280;51094;53.864;27.676;2023-06-19T12:15:40;99010.03;;;32.28;26.89
64679;BME280;51094;53.864;27.676;2023-06-19T12:18:07;99013.56;;;32.66;26.33
64679;BME280;51094;53.864;27.676;2023-06-19T12:20:44;99073.88;;;33.34;25.81
64679;BME280;51094;53.864;27.676;2023-06-19T12:23:12;99061.31;;;33.13;26.19
64679;BME280;51094;53.864;27.676;2023-06-19T12:25:39;99052.44;;;32.75;26.18
64679;BME280;51094;53.864;27.676;2023-06-19T12:28:06;99036.56;;;32.20;27.05
64679;BME280;51094;53.864;27.676;2023-06-19T12:30:36;99082.38;;;32.03;27.20
64679;BME280;51094;53.864;27.676;2023-06-19T12:33:03;98989.59;;;30.96;27.99
64679;BME280;51094;53.864;27.676;2023-06-19T12:35:33;99057.41;;;30.70;29.12
64679;BME280;51094;53.864;27.676;2023-06-19T12:38:00;99056.19;;;30.32;29.49
64679;BME280;51094;53.864;27.676;2023-06-19T12:40:29;99056.53;;;29.96;30.03
64679;BME280;51094;53.864;27.676;2023-06-19T12:42:56;98997.88;;;29.31;30.13
64679;BME280;51094;53.864;27.676;2023-06-19T12:45:23;98899.38;;;28.58;30.02
64679;BME280;51094;53.864;27.676;2023-06-19T12:47:50;99011.06;;;28.97;30.91
64679;BME280;51094;53.864;27.676;2023-06-19T12:50:20;98946.69;;;28.45;30.86
64679;BME280;51094;53.864;27.676;2023-06-19T12:52:48;99016.78;;;28.89;31.34
64679;BME280;51094;53.864;27.676;2023-06-19T12:55:16;98981.47;;;28.69;31.34
64679;BME280;51094;53.864;27.676;2023-06-19T12:57:42;99031.63;;;29.08;31.58
64679;BME280;51094;53.864;27.676;2023-06-19T13:00:12;99005.09;;;28.72;31.56
64679;BME280;51094;53.864;27.676;2023-06-19T13:02:40;99033.28;;;28.98;32.02
64679;BME280;51094;53.864;27.676;2023-06-19T13:05:07;99026.31;;;28.97;31.56